CPA303 ZSPD-VHHX
Flight info
| Callsign | CPA303 |
|---|---|
| Flight time | N/A |
| Altitude | 39100 |
| Route | HSN91D HSN W13 TOGUG/K0911S1160 W13 BEGMO W117 DST B221 LJG A470 BEBEM/N0496F381 A470 DOTMI/N0493F400 V512 MAGOG |
| Aircraft | B748/H-SDE3FGHIM1M2RWXY/LB1 |
Departure
| Time | N/A |
|---|---|
| Airport | Shanghai Pudong International Airport (ZSPD) |
Arrival
| Time | 2026-04-28 05:08 |
|---|---|
| Airport | Hong Kong International Airport Kai Tak (VHHX) |
| Time | Latitude | Longitude | Altitude | Speed | Heading |
|---|---|---|---|---|---|
| 2026-04-28 04:36 | 22.11707 | 114.48788 | 36578 ft | 321 kts | 268° |
| 2026-04-28 04:36 | 22.11820 | 114.46375 | 36236 ft | 322 kts | 276° |
| 2026-04-28 04:36 | 22.12307 | 114.44025 | 35888 ft | 323 kts | 285° |
| 2026-04-28 04:36 | 22.13168 | 114.41766 | 35553 ft | 327 kts | 294° |
| 2026-04-28 04:37 | 22.14367 | 114.39712 | 35233 ft | 331 kts | 303° |
| 2026-04-28 04:37 | 22.15923 | 114.37831 | 34896 ft | 334 kts | 308° |
| 2026-04-28 04:37 | 22.17516 | 114.36050 | 34554 ft | 334 kts | 308° |
| 2026-04-28 04:37 | 22.19150 | 114.34206 | 34213 ft | 334 kts | 308° |
| 2026-04-28 04:38 | 22.20756 | 114.32404 | 33891 ft | 334 kts | 308° |
| 2026-04-28 04:38 | 22.22352 | 114.30621 | 33516 ft | 334 kts | 308° |
| 2026-04-28 04:38 | 22.23966 | 114.28812 | 33158 ft | 334 kts | 309° |
| 2026-04-28 04:38 | 22.25760 | 114.27155 | 32845 ft | 338 kts | 320° |
| 2026-04-28 04:39 | 22.27801 | 114.25874 | 32524 ft | 343 kts | 330° |
| 2026-04-28 04:39 | 22.30037 | 114.25001 | 32221 ft | 348 kts | 340° |
| 2026-04-28 04:39 | 22.32450 | 114.24571 | 31943 ft | 363 kts | 351° |
| 2026-04-28 04:39 | 22.35116 | 114.24651 | 31668 ft | 396 kts | 2° |
| 2026-04-28 04:40 | 22.37941 | 114.25396 | 30707 ft | 438 kts | 18° |
| 2026-04-28 04:40 | 22.40674 | 114.26904 | 29737 ft | 458 kts | 32° |
| 2026-04-28 04:40 | 22.43150 | 114.29162 | 28635 ft | 473 kts | 45° |
| 2026-04-28 04:40 | 22.45158 | 114.32005 | 27570 ft | 484 kts | 58° |
| 2026-04-28 04:41 | 22.46615 | 114.35340 | 26514 ft | 493 kts | 71° |
| 2026-04-28 04:41 | 22.47411 | 114.38956 | 25493 ft | 498 kts | 83° |
| 2026-04-28 04:41 | 22.47517 | 114.42704 | 24475 ft | 501 kts | 95° |
| 2026-04-28 04:41 | 22.46924 | 114.46414 | 23501 ft | 502 kts | 107° |
| 2026-04-28 04:42 | 22.45660 | 114.49925 | 22340 ft | 501 kts | 119° |
| 2026-04-28 04:42 | 22.43792 | 114.53079 | 21213 ft | 498 kts | 131° |
| 2026-04-28 04:42 | 22.41403 | 114.55755 | 20107 ft | 493 kts | 142° |
| 2026-04-28 04:42 | 22.38607 | 114.57846 | 19038 ft | 488 kts | 153° |
| 2026-04-28 04:43 | 22.35511 | 114.59281 | 17955 ft | 482 kts | 165° |
| 2026-04-28 04:43 | 22.32259 | 114.60026 | 16903 ft | 473 kts | 174° |
| 2026-04-28 04:43 | 22.29056 | 114.60362 | 15988 ft | 465 kts | 178° |
| 2026-04-28 04:43 | 22.25821 | 114.60537 | 15063 ft | 457 kts | 179° |
| 2026-04-28 04:44 | 22.22648 | 114.60639 | 14177 ft | 450 kts | 180° |
| 2026-04-28 04:44 | 22.19528 | 114.60710 | 13236 ft | 444 kts | 180° |
| 2026-04-28 04:44 | 22.16456 | 114.60769 | 12268 ft | 438 kts | 180° |
| 2026-04-28 04:44 | 22.13434 | 114.60823 | 11319 ft | 433 kts | 180° |
| 2026-04-28 04:45 | 22.10441 | 114.60874 | 10420 ft | 428 kts | 180° |
| 2026-04-28 04:45 | 22.07477 | 114.60960 | 9492 ft | 424 kts | 178° |
| 2026-04-28 04:45 | 22.04560 | 114.61202 | 8522 ft | 420 kts | 174° |
| 2026-04-28 04:45 | 22.01686 | 114.61667 | 7577 ft | 416 kts | 170° |
| 2026-04-28 04:46 | 21.98883 | 114.62416 | 6690 ft | 412 kts | 161° |
| 2026-04-28 04:46 | 21.96406 | 114.63801 | 6141 ft | 401 kts | 146° |
| 2026-04-28 04:46 | 21.94418 | 114.65828 | 6001 ft | 381 kts | 129° |
| 2026-04-28 04:46 | 21.93150 | 114.68249 | 5994 ft | 361 kts | 111° |
| 2026-04-28 04:47 | 21.92623 | 114.70814 | 5986 ft | 344 kts | 94° |
| 2026-04-28 04:47 | 21.92919 | 114.73305 | 5991 ft | 330 kts | 72° |
| 2026-04-28 04:47 | 21.93941 | 114.75418 | 5999 ft | 317 kts | 54° |
| 2026-04-28 04:47 | 21.95448 | 114.77077 | 5982 ft | 305 kts | 37° |
| 2026-04-28 04:48 | 21.97279 | 114.78170 | 5983 ft | 294 kts | 20° |
| 2026-04-28 04:48 | 21.99234 | 114.78646 | 5991 ft | 283 kts | 3° |
| 2026-04-28 04:48 | 22.01158 | 114.78544 | 5991 ft | 272 kts | 348° |
| 2026-04-28 04:48 | 22.02925 | 114.77929 | 5982 ft | 262 kts | 333° |
| 2026-04-28 04:49 | 22.04411 | 114.76918 | 5975 ft | 252 kts | 318° |
| 2026-04-28 04:49 | 22.05247 | 114.76046 | 5982 ft | 244 kts | 308° |
| 2026-04-28 04:49 | 22.06425 | 114.74063 | 5992 ft | 234 kts | 290° |
| 2026-04-28 04:49 | 22.06796 | 114.72941 | 5995 ft | 234 kts | 282° |
| 2026-04-28 04:50 | 22.07106 | 114.71231 | 5996 ft | 235 kts | 278° |
| 2026-04-28 04:50 | 22.07424 | 114.69513 | 5986 ft | 234 kts | 279° |
| 2026-04-28 04:50 | 22.07742 | 114.67797 | 5996 ft | 233 kts | 279° |
| 2026-04-28 04:50 | 22.08152 | 114.65529 | 5992 ft | 232 kts | 279° |
| 2026-04-28 04:51 | 22.08460 | 114.63808 | 5991 ft | 234 kts | 278° |
| 2026-04-28 04:51 | 22.08667 | 114.62667 | 5993 ft | 234 kts | 278° |
| 2026-04-28 04:51 | 22.08982 | 114.60924 | 5993 ft | 235 kts | 278° |
| 2026-04-28 04:51 | 22.09294 | 114.59202 | 5986 ft | 233 kts | 278° |
| 2026-04-28 04:52 | 22.09605 | 114.57475 | 5994 ft | 233 kts | 278° |
| 2026-04-28 04:52 | 22.09915 | 114.55758 | 5991 ft | 233 kts | 278° |
| 2026-04-28 04:52 | 22.10219 | 114.54058 | 5989 ft | 234 kts | 278° |
| 2026-04-28 04:52 | 22.10529 | 114.52337 | 5994 ft | 234 kts | 278° |
| 2026-04-28 04:53 | 22.10841 | 114.50600 | 5993 ft | 233 kts | 278° |
| 2026-04-28 04:53 | 22.11152 | 114.48876 | 5993 ft | 234 kts | 278° |
| 2026-04-28 04:53 | 22.11464 | 114.47130 | 6009 ft | 243 kts | 278° |
| 2026-04-28 04:53 | 22.11791 | 114.45308 | 6001 ft | 247 kts | 278° |
| 2026-04-28 04:54 | 22.12119 | 114.43484 | 5999 ft | 249 kts | 278° |
| 2026-04-28 04:54 | 22.12448 | 114.41656 | 5998 ft | 249 kts | 279° |
| 2026-04-28 04:54 | 22.12777 | 114.39821 | 6001 ft | 249 kts | 278° |
| 2026-04-28 04:54 | 22.13103 | 114.37998 | 6003 ft | 250 kts | 278° |
| 2026-04-28 04:55 | 22.13429 | 114.36168 | 6004 ft | 249 kts | 278° |
| 2026-04-28 04:55 | 22.13755 | 114.34340 | 6003 ft | 251 kts | 278° |
| 2026-04-28 04:55 | 22.14086 | 114.32500 | 6001 ft | 248 kts | 278° |
| 2026-04-28 04:55 | 22.14411 | 114.30674 | 6004 ft | 249 kts | 278° |
| 2026-04-28 04:56 | 22.14736 | 114.28850 | 5995 ft | 249 kts | 278° |
| 2026-04-28 04:56 | 22.15062 | 114.27030 | 6004 ft | 247 kts | 278° |
| 2026-04-28 04:56 | 22.15389 | 114.25193 | 6004 ft | 248 kts | 278° |
| 2026-04-28 04:56 | 22.15712 | 114.23381 | 6006 ft | 248 kts | 278° |
| 2026-04-28 04:57 | 22.16038 | 114.21542 | 5999 ft | 249 kts | 278° |
| 2026-04-28 04:57 | 22.16360 | 114.19731 | 5999 ft | 250 kts | 278° |
| 2026-04-28 04:57 | 22.16688 | 114.17889 | 5996 ft | 249 kts | 278° |
| 2026-04-28 04:57 | 22.17015 | 114.16051 | 5996 ft | 249 kts | 278° |
| 2026-04-28 04:58 | 22.17341 | 114.14214 | 5995 ft | 248 kts | 278° |
| 2026-04-28 04:58 | 22.17666 | 114.12381 | 5998 ft | 249 kts | 278° |
| 2026-04-28 04:58 | 22.17991 | 114.10539 | 5995 ft | 249 kts | 278° |
| 2026-04-28 04:58 | 22.18316 | 114.08709 | 5996 ft | 249 kts | 278° |
| 2026-04-28 04:59 | 22.18639 | 114.06894 | 5993 ft | 248 kts | 278° |
| 2026-04-28 04:59 | 22.18965 | 114.05043 | 5994 ft | 248 kts | 278° |
| 2026-04-28 04:59 | 22.19288 | 114.03211 | 5994 ft | 248 kts | 278° |
| 2026-04-28 04:59 | 22.19610 | 114.01388 | 5993 ft | 249 kts | 278° |
| 2026-04-28 05:00 | 22.19937 | 113.99537 | 5993 ft | 249 kts | 278° |
| 2026-04-28 05:00 | 22.20260 | 113.97708 | 5995 ft | 249 kts | 278° |
| 2026-04-28 05:00 | 22.20581 | 113.95891 | 5994 ft | 249 kts | 278° |
| 2026-04-28 05:00 | 22.20905 | 113.94048 | 5991 ft | 249 kts | 278° |
| 2026-04-28 05:01 | 22.21439 | 113.92254 | 5992 ft | 253 kts | 301° |
| 2026-04-28 05:01 | 22.22682 | 113.90950 | 5904 ft | 252 kts | 331° |
| 2026-04-28 05:01 | 22.24327 | 113.90457 | 5567 ft | 250 kts | 359° |
| 2026-04-28 05:01 | 22.26094 | 113.90527 | 4980 ft | 254 kts | 4° |
| 2026-04-28 05:02 | 22.27819 | 113.90659 | 4554 ft | 250 kts | 6° |
| 2026-04-28 05:02 | 22.29459 | 113.91163 | 4532 ft | 253 kts | 35° |
| 2026-04-28 05:02 | 22.30818 | 113.92374 | 4507 ft | 253 kts | 48° |
| 2026-04-28 05:02 | 22.31714 | 113.93942 | 4400 ft | 253 kts | 77° |
| 2026-04-28 05:03 | 22.31940 | 113.95785 | 3938 ft | 245 kts | 91° |
| 2026-04-28 05:03 | 22.31951 | 113.97628 | 3786 ft | 237 kts | 92° |
| 2026-04-28 05:03 | 22.32010 | 113.99349 | 3650 ft | 219 kts | 89° |
| 2026-04-28 05:03 | 22.32129 | 114.00941 | 3431 ft | 221 kts | 88° |
| 2026-04-28 05:04 | 22.32246 | 114.02584 | 3132 ft | 209 kts | 88° |
| 2026-04-28 05:04 | 22.32345 | 114.04051 | 2832 ft | 186 kts | 89° |
| 2026-04-28 05:04 | 22.32430 | 114.05410 | 2623 ft | 180 kts | 89° |
| 2026-04-28 05:04 | 22.32516 | 114.06722 | 2385 ft | 173 kts | 89° |
| 2026-04-28 05:05 | 22.32599 | 114.07987 | 2129 ft | 161 kts | 88° |
| 2026-04-28 05:05 | 22.32673 | 114.09145 | 1908 ft | 148 kts | 87° |
| 2026-04-28 05:05 | 22.32744 | 114.10226 | 1705 ft | 143 kts | 88° |
| 2026-04-28 05:05 | 22.32816 | 114.11307 | 1616 ft | 140 kts | 87° |
| 2026-04-28 05:06 | 22.32882 | 114.12380 | 1363 ft | 143 kts | 86° |
| 2026-04-28 05:06 | 22.32955 | 114.13490 | 1137 ft | 145 kts | 87° |
| 2026-04-28 05:06 | 22.33027 | 114.14531 | 958 ft | 142 kts | 87° |
| 2026-04-28 05:06 | 22.33095 | 114.15622 | 784 ft | 149 kts | 87° |
| 2026-04-28 05:07 | 22.33152 | 114.16713 | 647 ft | 135 kts | 90° |
| 2026-04-28 05:07 | 22.33071 | 114.17800 | 529 ft | 145 kts | 99° |
| 2026-04-28 05:07 | 22.32784 | 114.18840 | 355 ft | 143 kts | 113° |
| 2026-04-28 05:07 | 22.32192 | 114.19658 | 51 ft | 136 kts | 135° |
| 2026-04-28 05:08 | 22.31590 | 114.20309 | 40 ft | 99 kts | 134° |
| 2026-04-28 05:08 | 22.31263 | 114.20678 | 35 ft | 44 kts | 135° |
| 2026-04-28 05:08 | 22.31114 | 114.20843 | 35 ft | 18 kts | 134° |
| 2026-04-28 05:08 | 22.31080 | 114.20881 | 35 ft | 3 kts | 134° |
| 2026-04-28 05:09 | 22.31043 | 114.20923 | 34 ft | 12 kts | 135° |
| 2026-04-28 05:09 | 22.30964 | 114.21008 | 32 ft | 20 kts | 134° |
| 2026-04-28 05:09 | 22.30864 | 114.21138 | 35 ft | 25 kts | 127° |
| 2026-04-28 05:09 | 22.30850 | 114.21264 | 35 ft | 2 kts | 46° |
| 2026-04-28 05:10 | 22.30857 | 114.21266 | 36 ft | 1 kts | 18° |
| 2026-04-28 05:10 | 22.30863 | 114.21265 | 36 ft | 1 kts | 358° |
| 2026-04-28 05:10 | 22.30871 | 114.21261 | 37 ft | 2 kts | 340° |
| 2026-04-28 05:10 | 22.30891 | 114.21246 | 35 ft | 4 kts | 319° |
| 2026-04-28 05:11 | 22.30917 | 114.21215 | 35 ft | 9 kts | 311° |
| 2026-04-28 05:11 | 22.30984 | 114.21135 | 35 ft | 19 kts | 313° |
| 2026-04-28 05:11 | 22.31097 | 114.21005 | 35 ft | 28 kts | 314° |
| 2026-04-28 05:11 | 22.31261 | 114.20830 | 35 ft | 37 kts | 314° |
| 2026-04-28 05:12 | 22.31435 | 114.20636 | 34 ft | 20 kts | 311° |
| 2026-04-28 05:12 | 22.31500 | 114.20603 | 37 ft | 4 kts | 15° |
| 2026-04-28 05:12 | 22.31515 | 114.20612 | 38 ft | 4 kts | 30° |
| 2026-04-28 05:12 | 22.31547 | 114.20634 | 38 ft | 7 kts | 36° |
| 2026-04-28 05:13 | 22.31611 | 114.20686 | 37 ft | 17 kts | 39° |
| 2026-04-28 05:13 | 22.31700 | 114.20767 | 35 ft | 12 kts | 43° |
| 2026-04-28 05:13 | 22.31726 | 114.20794 | 35 ft | 3 kts | 43° |
| 2026-04-28 05:13 | 22.31737 | 114.20806 | 35 ft | 0 kts | 43° |
| 2026-04-28 05:15 | 22.32629 | 114.08430 | 2118 ft | 160 kts | 88° |
| 2026-04-28 05:15 | 22.32939 | 114.13226 | 1218 ft | 146 kts | 87° |
| 2026-04-28 05:15 | 22.33012 | 114.14287 | 1008 ft | 139 kts | 87° |
| 2026-04-28 05:15 | 22.33077 | 114.15351 | 830 ft | 151 kts | 87° |
| 2026-04-28 05:16 | 22.33148 | 114.16476 | 640 ft | 142 kts | 89° |
| 2026-04-28 05:16 | 22.33108 | 114.17527 | 513 ft | 151 kts | 98° |
| 2026-04-28 05:16 | 22.32881 | 114.18607 | 379 ft | 147 kts | 111° |
| 2026-04-28 05:17 | 22.31704 | 114.20172 | 33 ft | 114 kts | 131° |
| 2026-04-28 05:17 | 22.31317 | 114.20617 | 36 ft | 50 kts | 133° |
| 2026-04-28 05:17 | 22.31137 | 114.20816 | 36 ft | 23 kts | 133° |
| 2026-04-28 05:17 | 22.31082 | 114.20878 | 36 ft | 0 kts | 134° |
| 2026-04-28 05:18 | 22.31055 | 114.20909 | 36 ft | 10 kts | 133° |
| 2026-04-28 05:18 | 22.30986 | 114.20984 | 36 ft | 18 kts | 134° |
| 2026-04-28 05:18 | 22.30889 | 114.21103 | 36 ft | 23 kts | 127° |
| 2026-04-28 05:18 | 22.30841 | 114.21251 | 36 ft | 12 kts | 67° |
| 2026-04-28 05:19 | 22.30856 | 114.21266 | 36 ft | 1 kts | 24° |
| 2026-04-28 05:19 | 22.32575 | 114.19210 | 209 ft | 141 kts | 124° |
| 2026-04-28 05:19 | 22.31917 | 114.19932 | 46 ft | 125 kts | 134° |
| 2026-04-28 05:19 | 22.32770 | 114.18870 | 349 ft | 142 kts | 114° |
| 2026-04-28 05:20 | 22.32714 | 114.18979 | 311 ft | 140 kts | 117° |
| 2026-04-28 05:20 | 22.32123 | 114.19727 | 51 ft | 133 kts | 135° |
| 2026-04-28 05:20 | 22.31550 | 114.20354 | 35 ft | 93 kts | 134° |
| 2026-04-28 05:20 | 22.32114 | 114.19736 | 55 ft | 131 kts | 135° |
| 2026-04-28 05:21 | 22.31600 | 114.20297 | 34 ft | 101 kts | 134° |
| 2026-04-28 05:21 | 22.32007 | 114.19841 | 57 ft | 127 kts | 135° |
| 2026-04-28 05:21 | 22.31909 | 114.19941 | 41 ft | 127 kts | 134° |
| 2026-04-28 05:22 | 22.32205 | 114.19646 | 44 ft | 137 kts | 135° |
| 2026-04-28 05:22 | 22.31856 | 114.19998 | 33 ft | 120 kts | 133° |
| 2026-04-28 05:23 | 22.31827 | 114.20030 | 36 ft | 122 kts | 132° |
| 2026-04-28 05:23 | 22.31685 | 114.20195 | 35 ft | 103 kts | 131° |
| 2026-04-28 05:25 | 22.31381 | 114.20542 | 37 ft | 64 kts | 133° |
| 2026-04-28 05:25 | 22.31168 | 114.20782 | 37 ft | 30 kts | 134° |
| 2026-04-28 05:25 | 22.32114 | 114.19736 | 55 ft | 131 kts | 135° |
| 2026-04-28 05:25 | 22.32630 | 114.19125 | 234 ft | 146 kts | 122° |
| 2026-04-28 05:26 | 22.32361 | 114.19483 | 82 ft | 141 kts | 132° |
| 2026-04-28 05:26 | 22.31728 | 114.20144 | 35 ft | 116 kts | 130° |
| 2026-04-28 05:27 | 22.31325 | 114.20607 | 35 ft | 52 kts | 133° |
| 2026-04-28 05:27 | 22.31139 | 114.20815 | 37 ft | 24 kts | 133° |
| 2026-04-28 05:27 | 22.31082 | 114.20878 | 37 ft | 0 kts | 134° |
| 2026-04-28 05:27 | 22.31055 | 114.20909 | 37 ft | 10 kts | 133° |
| 2026-04-28 05:28 | 22.30987 | 114.20983 | 37 ft | 18 kts | 134° |
| 2026-04-28 05:28 | 22.30890 | 114.21102 | 37 ft | 22 kts | 127° |
| 2026-04-28 05:28 | 22.30840 | 114.21249 | 37 ft | 13 kts | 69° |
| 2026-04-28 05:28 | 22.30856 | 114.21266 | 37 ft | 1 kts | 24° |
| 2026-04-28 05:29 | 22.31750 | 114.20819 | 37 ft | 7 kts | 43° |